OJAM/ADJ METAR and TAF weather

Enter ICAO airport designator
Station Type Date Time Source
OJAM METAR 2020/04/05 19:00 UTC NOAA

OJAM 051900Z 24005KT 3000 DU NSC 19/07 Q1015 NOSIG


Station Type Date Time Source
OJAM Decoded METAR 2020/04/05 19:00 UTC NOAA

Amman Airport, Jordan (OJAM) 31-59N 035-59E 768M
Apr 05, 2020 - 03:00 PM EDT / 2020.04.05 1900 UTC
Wind: from the WSW (240 degrees) at 6 MPH (5 KT):0
Visibility: 1 mile(s):0
Weather: widespread dust
Temperature: 66 F (19 C)
Dew Point: 44 F (7 C)
Relative Humidity: 45%
Pressure (altimeter): 29.97 in. Hg (1015 hPa)
ob: OJAM 051900Z 24005KT 3000 DU NSC 19/07 Q1015 NOSIG
cycle: 19

Station Type Date Time Source
OJAM TAF 2020/04/05 18:56 UTC NOAA

TAF OJAM 051700Z 0518/0624 28008KT 5000 HZ SCT080 PROB30 0601/0606 3000 PR PROB30 0601/0606 0800 FG

Example: see airport list